Time;durP1;ratioP1;P1;durP2;ratioP2;P2;SDS_P1;SDS_P2;PMS_P1;PMS_P2;Temp;Humidity;BMP_temperature;BMP_pressure;BME280_temperature;BME280_humidity;BME280_pressure;Samples;Min_cycle;Max_cycle;Signal;HPM_P1;HPM_P2
2023/11/21 00:02:35;;;;;;;32.70;19.50;;;;;;;4.67;93.93;98976.66;219563;1259;141317;-67
2023/11/21 00:07:38;;;;;;;25.60;14.60;;;;;;;4.58;94.05;98976.14;217599;1259;140569;-67
2023/11/21 00:12:43;;;;;;;28.50;16.90;;;;;;;4.48;94.14;98984.49;219766;1260;141262;-67
2023/11/21 00:17:46;;;;;;;22.10;13.20;;;;;;;4.44;94.60;98990.70;220282;1260;140338;-67
2023/11/21 00:22:50;;;;;;;28.40;16.80;;;;;;;4.42;94.51;98997.52;220113;1256;141287;-67
2023/11/21 00:27:54;;;;;;;26.70;16.20;;;;;;;4.40;94.70;99002.84;220200;1256;140895;-67
2023/11/21 00:32:57;;;;;;;24.10;14.90;;;;;;;4.34;94.34;99004.86;219277;1256;141339;-67
2023/11/21 00:38:00;;;;;;;24.50;16.50;;;;;;;4.29;94.36;99004.01;219863;1256;141038;-67
2023/11/21 00:43:03;;;;;;;34.10;16.10;;;;;;;4.26;94.53;98998.52;220071;1256;140241;-67
2023/11/21 00:48:08;;;;;;;50.00;15.90;;;;;;;4.22;94.55;99004.02;220223;1260;140699;-67
2023/11/21 00:53:11;;;;;;;26.00;14.70;;;;;;;4.20;94.76;99011.34;220163;1260;142417;-67
2023/11/21 00:58:13;;;;;;;23.90;14.20;;;;;;;4.19;94.72;99009.71;220439;1256;140567;-67
2023/11/21 01:03:15;;;;;;;65.80;17.90;;;;;;;4.20;94.66;99008.54;220131;1257;140589;-67
2023/11/21 01:08:21;;;;;;;39.30;20.30;;;;;;;4.18;94.76;99016.83;220074;1256;141234;-67
2023/11/21 01:13:28;;;;;;;21.40;13.20;;;;;;;4.17;94.68;99031.27;220170;1257;140339;-67
2023/11/21 01:18:31;;;;;;;22.80;14.80;;;;;;;4.12;94.54;99039.53;220014;1257;351556;-67
2023/11/21 01:23:34;;;;;;;60.50;14.80;;;;;;;4.11;94.83;99041.27;220187;1260;140848;-68
2023/11/21 01:28:37;;;;;;;24.90;14.80;;;;;;;4.08;94.71;99045.27;220168;1260;139891;-67
2023/11/21 01:33:40;;;;;;;25.50;14.20;;;;;;;4.06;94.83;99049.89;218086;1258;140804;-67
2023/11/21 01:38:43;;;;;;;26.70;13.70;;;;;;;4.02;94.59;99042.45;218432;1256;140537;-67
2023/11/21 01:43:46;;;;;;;26.60;15.40;;;;;;;3.95;94.66;99045.48;220252;1259;141480;-67
2023/11/21 01:48:50;;;;;;;28.60;16.80;;;;;;;3.87;94.56;99053.59;218055;1260;140785;-67
2023/11/21 01:53:54;;;;;;;22.00;14.20;;;;;;;3.83;94.71;99061.10;220417;1254;140250;-67
2023/11/21 01:58:57;;;;;;;22.70;14.90;;;;;;;3.82;94.92;99059.48;217576;1256;139995;-67
2023/11/21 02:04:01;;;;;;;23.00;14.10;;;;;;;3.76;94.51;99060.42;220441;1257;140558;-67
2023/11/21 02:09:05;;;;;;;30.40;15.40;;;;;;;3.66;94.66;99056.48;220223;1256;140035;-67
2023/11/21 02:14:09;;;;;;;31.00;15.00;;;;;;;3.58;94.47;99046.61;220346;1256;140418;-68
2023/11/21 02:19:19;;;;;;;27.70;15.70;;;;;;;3.53;94.35;99043.87;219723;1259;140650;-66
2023/11/21 02:24:23;;;;;;;84.70;21.20;;;;;;;3.49;94.39;99039.33;220329;1257;163513;-67
2023/11/21 02:29:28;;;;;;;28.50;15.30;;;;;;;3.46;94.35;99041.84;218543;1257;141367;-67
2023/11/21 02:34:31;;;;;;;29.10;16.60;;;;;;;3.43;94.49;99043.95;220058;1257;141017;-67
2023/11/21 02:39:34;;;;;;;35.90;16.90;;;;;;;3.38;94.42;99044.83;220224;1257;141162;-67
2023/11/21 02:44:36;;;;;;;35.10;15.50;;;;;;;3.32;94.28;99048.66;220187;1257;140160;-67
2023/11/21 02:49:40;;;;;;;28.90;15.70;;;;;;;3.26;94.28;99050.15;220478;1257;140251;-67
2023/11/21 02:54:44;;;;;;;39.90;18.00;;;;;;;3.22;94.52;99056.39;220448;1259;140436;-67
2023/11/21 02:59:47;;;;;;;40.70;17.30;;;;;;;3.19;94.38;99061.38;220473;1255;141478;-67
2023/11/21 03:04:50;;;;;;;30.00;16.80;;;;;;;3.11;94.34;99067.56;220256;1256;142087;-67
2023/11/21 03:09:53;;;;;;;32.40;19.80;;;;;;;3.07;94.53;99068.79;220167;1257;140829;-67
2023/11/21 03:14:57;;;;;;;29.80;17.60;;;;;;;3.06;94.59;99078.91;220477;1257;140545;-67
2023/11/21 03:20:00;;;;;;;29.10;14.60;;;;;;;3.06;94.72;99084.19;219067;1257;141031;-67
2023/11/21 03:25:02;;;;;;;30.30;16.10;;;;;;;3.05;94.62;99092.45;220560;1256;140924;-67
2023/11/21 03:30:08;;;;;;;28.80;16.30;;;;;;;2.98;94.46;99090.91;220570;1257;140439;-67
2023/11/21 03:35:10;;;;;;;28.10;15.50;;;;;;;2.90;94.32;99096.85;220100;1257;140203;-67
2023/11/21 03:40:13;;;;;;;33.40;19.90;;;;;;;2.89;94.63;99107.30;220206;1259;140433;-67
2023/11/21 03:45:17;;;;;;;30.10;15.20;;;;;;;2.89;94.73;99112.36;220046;1256;140604;-67
2023/11/21 03:50:20;;;;;;;32.00;17.10;;;;;;;2.90;94.81;99107.02;217197;1257;140747;-67
2023/11/21 03:55:24;;;;;;;27.90;14.20;;;;;;;2.89;94.80;99105.31;220150;1256;141826;-67
2023/11/21 04:00:28;;;;;;;32.50;15.70;;;;;;;2.89;95.03;99107.65;220341;1256;141717;-68
2023/11/21 04:05:34;;;;;;;32.40;16.80;;;;;;;2.90;95.03;99106.17;220062;1257;140080;-67
2023/11/21 04:10:39;;;;;;;30.10;15.60;;;;;;;2.88;94.64;99111.02;220010;1256;141030;-67
2023/11/21 04:15:42;;;;;;;35.50;16.00;;;;;;;2.85;94.86;99114.34;220009;1257;141739;-67
2023/11/21 04:20:44;;;;;;;36.30;17.40;;;;;;;2.82;94.70;99113.72;220126;1256;141451;-67
2023/11/21 04:25:47;;;;;;;40.90;16.80;;;;;;;2.81;94.87;99123.92;220139;1257;140436;-67
2023/11/21 04:30:50;;;;;;;32.00;16.90;;;;;;;2.78;94.69;99134.92;217604;1257;141132;-66
2023/11/21 04:35:52;;;;;;;51.60;20.10;;;;;;;2.69;94.55;99139.79;219596;1257;140496;-67
2023/11/21 04:40:55;;;;;;;28.90;13.60;;;;;;;2.60;94.60;99142.13;220514;1257;140399;-67
2023/11/21 04:45:58;;;;;;;43.10;17.60;;;;;;;2.52;94.54;99147.77;220548;1257;140895;-67
2023/11/21 04:51:01;;;;;;;30.90;15.10;;;;;;;2.48;94.81;99155.28;220345;1256;141782;-67
2023/11/21 04:56:05;;;;;;;41.70;15.20;;;;;;;2.44;94.60;99155.35;220084;1256;141032;-67
2023/11/21 05:01:10;;;;;;;30.20;16.40;;;;;;;2.35;94.62;99155.52;220198;1256;234676;-67
2023/11/21 05:06:14;;;;;;;28.20;14.00;;;;;;;2.30;94.77;99157.03;220352;1257;140458;-67
2023/11/21 05:11:28;;;;;;;30.90;15.80;;;;;;;2.25;94.71;99159.67;220392;1256;140124;-67
2023/11/21 05:16:31;;;;;;;32.40;12.50;;;;;;;2.22;94.82;99163.91;219985;1256;142049;-67
2023/11/21 05:21:35;;;;;;;22.40;12.20;;;;;;;2.17;94.59;99166.23;220160;1256;141324;-67
2023/11/21 05:26:39;;;;;;;43.40;15.40;;;;;;;2.11;94.72;99176.32;219203;1257;141450;-67
2023/11/21 05:31:42;;;;;;;26.30;13.30;;;;;;;2.06;94.72;99182.45;220181;1256;140501;-67
2023/11/21 05:36:45;;;;;;;26.30;12.90;;;;;;;1.99;94.81;99182.92;219962;1256;141233;-66
2023/11/21 05:41:48;;;;;;;80.10;17.60;;;;;;;1.96;94.88;99191.52;219838;1256;141215;-67
2023/11/21 05:46:53;;;;;;;19.80;11.50;;;;;;;1.90;94.68;99197.17;220476;1256;140600;-67
2023/11/21 05:51:56;;;;;;;26.80;14.40;;;;;;;1.86;94.65;99197.06;220240;1255;140516;-67
2023/11/21 05:56:59;;;;;;;25.80;14.20;;;;;;;1.78;94.47;99198.64;219678;1256;141159;-67
2023/11/21 06:02:02;;;;;;;21.60;14.30;;;;;;;1.68;94.47;99196.85;220145;1256;140528;-67
2023/11/21 06:07:05;;;;;;;29.60;13.10;;;;;;;1.56;94.43;99210.41;220033;1257;140419;-67
2023/11/21 06:12:08;;;;;;;21.00;11.60;;;;;;;1.46;94.16;99214.86;220209;1256;141012;-66
2023/11/21 06:17:11;;;;;;;21.50;11.50;;;;;;;1.40;94.45;99224.83;220150;1256;141184;-68
2023/11/21 06:22:13;;;;;;;20.50;10.50;;;;;;;1.38;94.43;99241.17;219733;1256;140303;-66
2023/11/21 06:27:16;;;;;;;18.60;9.60;;;;;;;1.38;94.63;99250.86;220033;1256;140530;-66
2023/11/21 06:32:20;;;;;;;14.00;9.10;;;;;;;1.36;94.67;99249.48;219397;1257;140794;-69
2023/11/21 06:37:24;;;;;;;8.90;6.80;;;;;;;1.30;94.21;99246.21;219643;1257;140292;-65
2023/11/21 06:42:28;;;;;;;8.10;6.40;;;;;;;1.24;94.49;99254.15;220073;1256;140231;-66
2023/11/21 06:47:31;;;;;;;9.50;5.60;;;;;;;1.20;94.28;99262.33;220170;1259;139925;-66
2023/11/21 06:52:35;;;;;;;8.60;6.00;;;;;;;1.19;94.12;99274.75;220093;1256;141257;-67
2023/11/21 06:57:38;;;;;;;6.50;4.90;;;;;;;1.15;94.03;99283.59;220136;1256;140317;-66
2023/11/21 07:02:40;;;;;;;8.70;5.50;;;;;;;1.14;94.25;99286.04;220011;1256;140969;-67
2023/11/21 07:07:43;;;;;;;9.10;5.10;;;;;;;1.12;94.12;99288.39;220049;1257;139982;-66
2023/11/21 07:12:45;;;;;;;5.90;3.90;;;;;;;1.09;93.91;99303.39;220127;1256;140300;-66
2023/11/21 07:17:48;;;;;;;9.10;5.50;;;;;;;1.09;94.05;99314.77;220272;1256;140551;-66
2023/11/21 07:22:51;;;;;;;6.30;4.30;;;;;;;1.09;93.92;99322.65;220003;1256;140359;-68
2023/11/21 07:27:54;;;;;;;9.50;4.40;;;;;;;1.09;93.83;99325.73;220033;1257;140351;-67
2023/11/21 07:32:57;;;;;;;6.10;5.00;;;;;;;1.08;94.01;99334.35;219680;1257;140270;-66
2023/11/21 07:38:00;;;;;;;5.90;5.00;;;;;;;1.03;93.68;99335.94;220089;1256;139876;-67
2023/11/21 07:43:05;;;;;;;5.90;4.20;;;;;;;0.96;93.44;99339.40;220070;1259;139830;-66
2023/11/21 07:48:08;;;;;;;6.60;5.40;;;;;;;0.91;93.56;99347.05;220049;1256;141257;-66
2023/11/21 07:53:12;;;;;;;5.90;4.40;;;;;;;0.87;93.82;99347.10;220019;1257;140434;-67
2023/11/21 07:58:15;;;;;;;7.10;5.90;;;;;;;0.79;93.12;99343.73;220088;1257;141195;-66
2023/11/21 08:03:18;;;;;;;15.30;7.10;;;;;;;0.73;93.40;99354.89;220184;1256;140209;-66
2023/11/21 08:08:22;;;;;;;10.60;6.20;;;;;;;0.70;93.48;99355.80;220165;1256;140390;-67
2023/11/21 08:13:26;;;;;;;9.90;6.70;;;;;;;0.74;93.61;99357.60;220073;1257;141228;-69
2023/11/21 08:18:31;;;;;;;7.90;5.60;;;;;;;0.77;93.66;99364.03;220096;1257;139964;-69
2023/11/21 08:23:35;;;;;;;9.40;6.00;;;;;;;0.71;93.27;99371.92;219152;1256;140740;-66
2023/11/21 08:28:37;;;;;;;8.70;7.20;;;;;;;0.66;93.38;99371.45;217054;1256;140209;-66
2023/11/21 08:33:40;;;;;;;8.30;6.00;;;;;;;0.67;93.90;99374.04;220073;1256;140524;-67
2023/11/21 08:38:44;;;;;;;7.60;6.50;;;;;;;0.65;93.78;99376.23;219935;1256;141918;-66
2023/11/21 08:43:51;;;;;;;9.40;7.30;;;;;;;0.63;93.77;99382.78;220262;1255;140859;-66
2023/11/21 08:48:54;;;;;;;9.40;7.50;;;;;;;0.64;93.60;99390.75;217289;1259;140771;-66
2023/11/21 08:54:00;;;;;;;7.80;5.50;;;;;;;0.60;93.68;99398.02;220713;1254;139933;-66
2023/11/21 08:59:03;;;;;;;5.40;4.60;;;;;;;0.61;93.83;99407.00;220532;1255;141543;-66
2023/11/21 09:04:06;;;;;;;6.60;6.00;;;;;;;0.64;93.48;99409.59;220561;1256;141409;-67
2023/11/21 09:09:10;;;;;;;6.90;4.70;;;;;;;0.66;93.48;99409.75;220013;1256;140161;-68
2023/11/21 09:14:14;;;;;;;7.20;4.10;;;;;;;0.69;93.64;99412.98;220094;1256;139951;-68
2023/11/21 09:19:17;;;;;;;5.30;4.10;;;;;;;0.67;93.36;99410.89;220025;1257;140811;-68
2023/11/21 09:24:20;;;;;;;7.50;5.80;;;;;;;0.65;93.18;99414.24;220701;1256;140709;-69
2023/11/21 09:29:24;;;;;;;7.40;5.60;;;;;;;0.63;93.17;99410.75;220191;1256;140273;-68
2023/11/21 09:34:27;;;;;;;7.80;5.60;;;;;;;0.66;93.29;99416.80;220591;1255;139960;-68
2023/11/21 09:39:31;;;;;;;7.20;6.40;;;;;;;0.74;93.73;99417.77;220264;1256;140116;-67
2023/11/21 09:45:03;;;;;;;8.80;7.30;;;;;;;0.79;93.51;99420.69;219276;1256;140592;-66
2023/11/21 09:50:10;;;;;;;7.40;6.00;;;;;;;0.81;93.38;99419.19;220150;1256;140602;-66
2023/11/21 09:55:18;;;;;;;10.20;6.70;;;;;;;0.86;93.11;99426.69;220058;1256;140739;-69
2023/11/21 10:00:27;;;;;;;7.60;5.70;;;;;;;0.93;93.08;99421.29;219512;1256;140534;-66
2023/11/21 10:05:34;;;;;;;12.00;8.10;;;;;;;0.96;93.00;99424.20;219121;1256;139890;-67
2023/11/21 10:10:44;;;;;;;8.60;6.10;;;;;;;0.98;93.21;99437.59;217401;1256;139745;-65
2023/11/21 10:15:52;;;;;;;12.10;6.40;;;;;;;0.93;93.13;99440.86;220234;1256;140073;-69
2023/11/21 10:20:57;;;;;;;8.40;6.50;;;;;;;0.82;92.23;99440.59;220463;1255;140408;-68
2023/11/21 10:26:01;;;;;;;10.40;8.10;;;;;;;0.74;92.59;99441.06;220560;1256;140880;-68
2023/11/21 10:31:13;;;;;;;11.00;7.50;;;;;;;0.73;92.86;99442.95;220345;1255;141548;-68
2023/11/21 10:36:36;;;;;;;10.10;7.60;;;;;;;0.75;92.95;99451.61;219858;1255;140285;-66
2023/11/21 10:41:39;;;;;;;9.50;8.10;;;;;;;0.77;92.80;99459.36;219107;1256;141594;-66
2023/11/21 10:46:43;;;;;;;9.50;6.40;;;;;;;0.73;92.44;99459.14;220450;1257;140193;-67
2023/11/21 10:51:51;;;;;;;10.20;8.10;;;;;;;0.71;92.63;99465.71;220179;1256;139685;-67
2023/11/21 10:57:00;;;;;;;9.10;7.90;;;;;;;0.63;92.43;99472.58;220086;1258;140580;-66
2023/11/21 11:02:24;;;;;;;10.30;8.20;;;;;;;0.54;92.56;99469.61;220148;1256;140627;-67
2023/11/21 11:07:30;;;;;;;16.80;11.40;;;;;;;0.49;92.57;99472.66;220303;1255;140541;-67
2023/11/21 11:12:35;;;;;;;10.20;8.00;;;;;;;0.49;92.74;99478.77;220379;1257;141316;-66
2023/11/21 11:17:40;;;;;;;13.40;8.40;;;;;;;0.48;92.56;99479.27;220141;1256;140831;-69
2023/11/21 11:23:02;;;;;;;8.00;7.00;;;;;;;0.41;92.20;99483.90;220031;1256;141190;-69
2023/11/21 11:28:14;;;;;;;8.10;5.60;;;;;;;0.35;92.38;99486.26;220186;1256;141265;-67
2023/11/21 11:33:38;;;;;;;11.70;8.50;;;;;;;0.30;92.29;99488.80;220100;1256;141033;-68
2023/11/21 11:38:46;;;;;;;9.70;7.30;;;;;;;0.22;92.34;99491.21;220171;1256;141262;-68
2023/11/21 11:43:49;;;;;;;31.10;13.30;;;;;;;0.17;92.23;99492.03;220190;1256;140036;-68
2023/11/21 11:49:03;;;;;;;10.30;7.80;;;;;;;0.15;92.33;99496.27;220261;1258;143094;-64
2023/11/21 11:54:06;;;;;;;9.40;8.00;;;;;;;0.13;92.38;99505.26;220275;1256;141843;-65
2023/11/21 11:59:09;;;;;;;12.00;7.90;;;;;;;0.10;92.30;99507.80;220196;1257;139666;-66
2023/11/21 12:04:23;;;;;;;14.80;10.20;;;;;;;0.06;92.33;99509.35;219373;1258;140279;-65
2023/11/21 12:09:27;;;;;;;7.50;6.60;;;;;;;0.02;91.70;99510.50;220182;1255;141186;-65
2023/11/21 12:14:31;;;;;;;10.90;7.70;;;;;;;-0.02;91.83;99509.20;220319;1255;140960;-66
2023/11/21 12:19:34;;;;;;;13.10;9.90;;;;;;;-0.04;91.80;99515.04;220008;1256;142047;-67
2023/11/21 12:24:36;;;;;;;8.60;7.20;;;;;;;-0.04;91.75;99516.41;220233;1257;140740;-66
2023/11/21 12:29:41;;;;;;;11.60;8.60;;;;;;;-0.03;91.93;99519.16;218117;1256;140002;-65
2023/11/21 12:34:44;;;;;;;12.00;10.40;;;;;;;-0.03;91.79;99517.02;219447;1259;140843;-66
2023/11/21 12:39:49;;;;;;;18.70;9.90;;;;;;;-0.01;91.79;99519.92;219142;1259;140553;-67
2023/11/21 12:45:19;;;;;;;14.40;8.90;;;;;;;0.04;91.74;99525.80;218258;1257;140605;-64
2023/11/21 12:50:23;;;;;;;17.10;11.50;;;;;;;0.06;91.74;99533.98;218588;1256;142319;-64
2023/11/21 12:55:31;;;;;;;14.10;10.70;;;;;;;0.01;91.56;99542.29;220012;1256;141380;-62
2023/11/21 13:00:46;;;;;;;16.90;13.00;;;;;;;-0.05;91.27;99544.48;220281;1257;140035;-65
2023/11/21 13:05:51;;;;;;;21.80;14.30;;;;;;;-0.09;91.80;99555.63;220051;1256;140624;-65
2023/11/21 13:10:57;;;;;;;25.10;14.70;;;;;;;-0.19;91.43;99572.14;219924;1256;142135;-63
2023/11/21 13:16:05;;;;;;;19.40;13.60;;;;;;;-0.21;91.81;99578.92;219764;1256;494677;-67
2023/11/21 13:21:12;;;;;;;;;;;;;;;-0.21;91.78;99586.58;220172;1256;141470;-66
2023/11/21 13:26:15;;;;;;;19.70;13.40;;;;;;;-0.25;91.58;99596.67;220530;1256;127812;-66
2023/11/21 13:31:26;;;;;;;17.90;14.90;;;;;;;-0.31;91.79;99605.90;220140;1257;141221;-66
2023/11/21 13:36:32;;;;;;;20.20;12.30;;;;;;;-0.40;91.86;99615.95;220259;1256;140878;-65
2023/11/21 13:41:38;;;;;;;17.40;11.70;;;;;;;-0.49;91.34;99622.47;220200;1257;141220;-63
2023/11/21 13:46:41;;;;;;;27.50;15.50;;;;;;;-0.51;91.76;99631.98;220143;1256;141021;-65
2023/11/21 13:51:47;;;;;;;27.30;16.00;;;;;;;-0.51;91.81;99639.98;220105;1257;140397;-64
2023/11/21 13:56:51;;;;;;;25.80;13.30;;;;;;;-0.54;91.63;99649.61;220072;1256;141374;-64
2023/11/21 14:01:57;;;;;;;19.60;12.50;;;;;;;-0.56;91.55;99660.50;220083;1256;141090;-67
2023/11/21 14:07:20;;;;;;;23.40;13.30;;;;;;;-0.60;91.51;99666.00;218375;1259;142168;-66
2023/11/21 14:12:24;;;;;;;23.90;14.70;;;;;;;-0.65;91.80;99674.86;219215;1256;141233;-67
2023/11/21 14:17:27;;;;;;;22.80;15.20;;;;;;;-0.67;92.02;99684.70;218034;1256;140812;-65
2023/11/21 14:22:30;;;;;;;16.20;12.90;;;;;;;-0.70;91.77;99686.77;219636;1257;141162;-65
2023/11/21 14:27:33;;;;;;;19.80;11.70;;;;;;;-0.72;92.30;99688.17;218841;1256;140715;-65
2023/11/21 14:32:39;;;;;;;24.20;16.10;;;;;;;-0.74;92.05;99691.54;219602;1256;141628;-64
2023/11/21 14:37:42;;;;;;;18.40;13.10;;;;;;;-0.79;92.10;99699.05;219397;1256;140859;-64
2023/11/21 14:42:46;;;;;;;17.00;11.00;;;;;;;-0.81;91.89;99711.48;220076;1257;141944;-66
2023/11/21 14:48:15;;;;;;;21.90;15.40;;;;;;;-0.82;92.04;99711.29;217995;1260;140052;-65
2023/11/21 14:53:14;;;;;;;25.20;16.50;;;;;;;-0.83;92.21;99717.44;219330;1256;140605;-65
2023/11/21 14:58:26;;;;;;;26.40;15.20;;;;;;;-0.82;92.21;99725.02;220161;1256;140603;-65
2023/11/21 15:08:36;;;;;;;24.90;17.10;;;;;;;-0.84;91.93;99735.75;219120;1256;140437;-66
2023/11/21 15:13:38;;;;;;;23.80;14.40;;;;;;;-0.85;91.85;99738.98;217971;1256;140424;-65
2023/11/21 15:18:42;;;;;;;26.10;15.40;;;;;;;-0.86;91.90;99744.41;219546;1258;140945;-67
2023/11/21 15:23:46;;;;;;;23.20;15.40;;;;;;;-0.87;92.03;99749.77;220306;1255;141123;-67
2023/11/21 15:28:49;;;;;;;27.10;17.20;;;;;;;-0.88;92.04;99759.89;220213;1256;140958;-64
2023/11/21 15:33:59;;;;;;;28.80;16.80;;;;;;;-0.88;91.90;99762.49;220094;1259;140550;-63
2023/11/21 15:39:02;;;;;;;24.60;14.60;;;;;;;-0.89;91.83;99765.23;220212;1256;140403;-65
2023/11/21 15:44:07;;;;;;;31.80;18.20;;;;;;;-0.91;91.87;99772.09;220270;1257;141853;-65
2023/11/21 15:49:14;;;;;;;26.60;15.80;;;;;;;-0.93;91.73;99773.17;220136;1256;140597;-64
2023/11/21 15:54:16;;;;;;;;;;;;;;;-0.97;91.81;99786.34;220140;1260;141695;-66
2023/11/21 15:59:18;;;;;;;20.70;13.70;;;;;;;-1.04;91.80;99795.21;220539;1256;127105;-65
2023/11/21 16:04:23;;;;;;;25.40;14.40;;;;;;;-1.03;91.99;99803.33;220165;1257;140659;-64
2023/11/21 16:09:32;;;;;;;21.80;14.80;;;;;;;-1.05;91.56;99814.08;220303;1256;142386;-64
2023/11/21 16:14:47;;;;;;;24.20;15.40;;;;;;;-1.08;91.69;99821.61;219264;1256;140626;-62
2023/11/21 16:19:52;;;;;;;26.80;16.60;;;;;;;-1.12;91.51;99839.95;220301;1257;141435;-62
2023/11/21 16:24:57;;;;;;;31.20;18.10;;;;;;;-1.14;91.73;99840.38;220137;1256;140672;-63
2023/11/21 16:30:00;;;;;;;22.10;14.00;;;;;;;-1.13;91.55;99836.11;220243;1256;140959;-64
2023/11/21 16:35:04;;;;;;;29.30;17.80;;;;;;;-1.14;91.52;99840.48;219071;1259;140513;-63
2023/11/21 16:40:10;;;;;;;23.60;13.80;;;;;;;-1.14;91.58;99840.71;220099;1257;141227;-65
2023/11/21 16:45:14;;;;;;;22.00;13.80;;;;;;;-1.15;91.63;99848.79;220102;1256;142119;-65
2023/11/21 16:50:19;;;;;;;23.80;14.90;;;;;;;-1.18;91.43;99863.91;219505;1260;140394;-64
2023/11/21 16:55:25;;;;;;;26.50;14.40;;;;;;;-1.21;91.59;99868.27;220355;1256;140671;-64
2023/11/21 17:00:28;;;;;;;21.70;13.70;;;;;;;-1.23;91.51;99875.52;219605;1258;141012;-65
2023/11/21 17:05:34;;;;;;;22.10;13.60;;;;;;;-1.23;91.50;99884.23;220067;1259;140758;-66
2023/11/21 17:10:38;;;;;;;25.20;15.70;;;;;;;-1.24;91.52;99890.42;220169;1256;141718;-65
2023/11/21 17:15:46;;;;;;;21.90;14.80;;;;;;;-1.26;91.31;99899.20;220335;1256;140542;-65
2023/11/21 17:20:49;;;;;;;28.50;15.10;;;;;;;-1.29;91.33;99903.33;220333;1256;140776;-64
2023/11/21 17:25:51;;;;;;;19.90;14.10;;;;;;;-1.32;91.47;99901.28;220448;1256;140882;-63
2023/11/21 17:30:54;;;;;;;23.10;14.50;;;;;;;-1.33;91.53;99902.84;220259;1257;140906;-63
2023/11/21 17:35:59;;;;;;;22.00;14.60;;;;;;;-1.34;91.46;99902.94;220422;1256;140907;-64
2023/11/21 17:41:02;;;;;;;29.10;14.50;;;;;;;-1.35;91.48;99911.00;220073;1256;140577;-65
2023/11/21 17:46:05;;;;;;;21.20;13.80;;;;;;;-1.33;91.44;99915.36;220136;1260;141636;-64
2023/11/21 17:51:09;;;;;;;25.80;13.70;;;;;;;-1.30;91.58;99919.64;220283;1258;140944;-65
2023/11/21 17:56:17;;;;;;;25.90;14.60;;;;;;;-1.31;91.22;99927.67;220270;1257;140762;-64
2023/11/21 18:01:21;;;;;;;31.80;16.80;;;;;;;-1.30;91.26;99927.47;220175;1256;141032;-63
2023/11/21 18:06:28;;;;;;;24.40;13.20;;;;;;;-1.30;91.30;99934.90;220175;1258;142014;-64
2023/11/21 18:11:31;;;;;;;20.50;13.60;;;;;;;-1.26;91.39;99942.77;219604;1260;142628;-63
2023/11/21 18:16:34;;;;;;;28.70;17.30;;;;;;;-1.24;91.31;99950.89;219994;1257;140517;-63
2023/11/21 18:21:41;;;;;;;24.80;16.50;;;;;;;-1.21;91.30;99958.09;220178;1259;140788;-66
2023/11/21 18:26:46;;;;;;;25.40;16.30;;;;;;;-1.23;91.19;99959.56;218935;1260;141184;-65
2023/11/21 18:31:49;;;;;;;26.80;17.70;;;;;;;-1.25;91.37;99965.80;218762;1256;140517;-66
2023/11/21 18:36:52;;;;;;;23.00;14.40;;;;;;;-1.25;91.23;99972.98;220145;1258;140585;-66
2023/11/21 18:41:59;;;;;;;24.00;14.50;;;;;;;-1.28;90.92;99983.69;219221;1260;140287;-65
2023/11/21 18:47:02;;;;;;;22.80;14.50;;;;;;;-1.36;90.79;99989.60;220120;1260;140665;-66
2023/11/21 18:52:10;;;;;;;26.90;16.10;;;;;;;-1.43;90.58;99999.80;220142;1260;140603;-66
2023/11/21 18:57:13;;;;;;;37.60;16.80;;;;;;;-1.44;91.06;100008.69;219818;1256;142375;-66
2023/11/21 19:02:19;;;;;;;24.90;16.40;;;;;;;-1.45;90.94;100014.83;219582;1256;141644;-66
2023/11/21 19:07:23;;;;;;;24.60;14.70;;;;;;;-1.47;90.62;100015.55;219950;1257;141049;-66
2023/11/21 19:12:26;;;;;;;22.90;14.40;;;;;;;-1.51;90.46;100029.60;220100;1257;140655;-66
2023/11/21 19:17:34;;;;;;;26.80;14.50;;;;;;;-1.53;90.47;100031.69;219998;1257;141620;-66
2023/11/21 19:22:39;;;;;;;21.10;12.20;;;;;;;-1.51;90.47;100031.85;220043;1257;141948;-66
2023/11/21 19:27:42;;;;;;;27.10;15.90;;;;;;;-1.52;90.43;100044.81;220134;1257;140786;-66
2023/11/21 19:32:45;;;;;;;37.80;16.90;;;;;;;-1.54;90.07;100051.89;220479;1257;140675;-66
2023/11/21 19:37:48;;;;;;;22.90;14.00;;;;;;;-1.56;90.19;100060.75;220009;1257;140553;-66
2023/11/21 19:42:51;;;;;;;27.50;16.40;;;;;;;-1.60;90.05;100070.39;220209;1256;141035;-66
2023/11/21 19:47:54;;;;;;;28.70;16.80;;;;;;;-1.61;90.12;100084.09;219946;1256;142494;-66
2023/11/21 19:52:56;;;;;;;25.80;15.80;;;;;;;-1.61;90.00;100088.47;220145;1255;141643;-66
2023/11/21 19:58:02;;;;;;;25.20;13.90;;;;;;;-1.61;90.12;100094.22;220293;1258;141687;-66
2023/11/21 20:03:06;;;;;;;24.30;12.40;;;;;;;-1.63;89.86;100097.89;220130;1257;140415;-66
2023/11/21 20:08:11;;;;;;;19.30;11.00;;;;;;;-1.64;89.91;100110.73;220512;1257;141751;-66
2023/11/21 20:13:17;;;;;;;22.10;13.80;;;;;;;-1.64;89.99;100122.91;220098;1257;142153;-66
2023/11/21 20:18:23;;;;;;;23.10;13.70;;;;;;;-1.65;89.84;100136.58;220143;1257;141137;-66
2023/11/21 20:23:31;;;;;;;18.90;12.40;;;;;;;-1.65;89.89;100148.74;220148;1256;140729;-66
2023/11/21 20:28:36;;;;;;;22.40;14.00;;;;;;;-1.63;89.80;100154.48;220053;1258;140850;-66
2023/11/21 20:33:39;;;;;;;16.10;8.80;;;;;;;-1.64;89.96;100160.16;220317;1257;140838;-65
2023/11/21 20:38:43;;;;;;;22.10;12.20;;;;;;;-1.62;89.92;100166.95;220059;1256;140790;-66
2023/11/21 20:43:48;;;;;;;27.50;14.70;;;;;;;-1.59;89.84;100165.84;218027;1257;140748;-66
2023/11/21 20:48:51;;;;;;;25.60;15.00;;;;;;;-1.60;89.54;100170.93;220063;1257;140946;-66
2023/11/21 20:53:57;;;;;;;24.80;14.60;;;;;;;-1.59;89.67;100176.83;218659;1258;141100;-66
2023/11/21 20:59:05;;;;;;;24.60;14.50;;;;;;;-1.62;89.38;100181.29;218851;1260;140917;-65
2023/11/21 21:04:08;;;;;;;23.80;14.70;;;;;;;-1.63;89.53;100197.05;220128;1256;140789;-66
2023/11/21 21:09:10;;;;;;;16.60;11.10;;;;;;;-1.62;89.52;100205.50;220143;1256;140802;-66
2023/11/21 21:14:13;;;;;;;28.20;15.50;;;;;;;-1.64;89.43;100208.28;219016;1257;140627;-66
2023/11/21 21:19:17;;;;;;;22.20;11.50;;;;;;;-1.64;89.46;100210.55;217745;1257;140996;-66
2023/11/21 21:24:19;;;;;;;24.90;14.90;;;;;;;-1.67;89.37;100221.48;220161;1256;140881;-66
2023/11/21 21:29:25;;;;;;;24.50;12.20;;;;;;;-1.69;89.32;100221.78;219784;1257;140405;-65
2023/11/21 21:34:29;;;;;;;31.80;13.90;;;;;;;-1.68;89.28;100238.98;220081;1256;141457;-66
2023/11/21 21:39:31;;;;;;;22.40;14.00;;;;;;;-1.71;89.17;100244.23;220091;1257;140629;-66
2023/11/21 21:44:39;;;;;;;26.40;13.80;;;;;;;-1.69;89.40;100251.96;220255;1257;140673;-66
2023/11/21 21:49:42;;;;;;;16.60;10.00;;;;;;;-1.64;89.41;100262.29;220114;1257;141872;-66
2023/11/21 21:54:45;;;;;;;19.30;9.80;;;;;;;-1.68;88.93;100268.39;220067;1256;141048;-66
2023/11/21 21:59:48;;;;;;;15.10;9.60;;;;;;;-1.73;88.88;100273.02;220401;1257;141360;-65
2023/11/21 22:04:52;;;;;;;16.40;9.90;;;;;;;-1.74;89.01;100275.69;220507;1255;140621;-66
2023/11/21 22:09:55;;;;;;;19.30;9.70;;;;;;;-1.73;88.76;100280.56;220287;1257;141340;-66
2023/11/21 22:14:59;;;;;;;15.40;10.50;;;;;;;-1.74;88.84;100285.10;220361;1256;141854;-66
2023/11/21 22:20:03;;;;;;;13.00;7.70;;;;;;;-1.70;88.86;100292.27;219537;1254;141726;-66
2023/11/21 22:25:08;;;;;;;17.50;8.60;;;;;;;-1.69;88.55;100301.08;220272;1256;142203;-66
2023/11/21 22:30:11;;;;;;;19.30;9.80;;;;;;;-1.72;88.46;100306.42;220286;1256;152874;-66
2023/11/21 22:35:14;;;;;;;19.30;11.70;;;;;;;-1.75;88.50;100307.71;220486;1255;141191;-66
2023/11/21 22:40:19;;;;;;;18.90;9.40;;;;;;;-1.75;88.51;100317.13;220173;1255;143003;-66
2023/11/21 22:45:22;;;;;;;19.50;6.70;;;;;;;-1.78;88.20;100321.42;220091;1256;141594;-66
2023/11/21 22:50:25;;;;;;;16.40;10.20;;;;;;;-1.82;87.98;100324.95;220286;1256;140931;-66
2023/11/21 22:55:28;;;;;;;12.90;8.70;;;;;;;-1.83;88.02;100327.82;220498;1256;141098;-66
2023/11/21 23:00:31;;;;;;;12.70;8.00;;;;;;;-1.84;88.12;100333.30;219512;1257;142108;-65
2023/11/21 23:05:34;;;;;;;13.40;8.70;;;;;;;-1.85;87.98;100336.52;218907;1257;141330;-65
2023/11/21 23:10:39;;;;;;;15.10;8.40;;;;;;;-1.84;87.96;100341.70;218651;1256;140603;-66